createdAt,value
2023-02-19T00:01:35.082Z,33.60
2023-02-19T00:03:40.298Z,35.40
2023-02-19T00:05:45.691Z,31.10
2023-02-19T00:07:50.700Z,28.60
2023-02-19T00:09:55.942Z,31.50
2023-02-19T00:12:01.225Z,31.90
2023-02-19T00:14:09.521Z,28.00
2023-02-19T00:16:22.054Z,27.50
2023-02-19T00:18:27.084Z,26.90
2023-02-19T00:20:31.956Z,21.80
2023-02-19T00:22:36.972Z,21.80
2023-02-19T00:24:42.035Z,20.80
2023-02-19T00:26:49.465Z,21.80
2023-02-19T00:28:58.284Z,10.70
2023-02-19T00:31:12.553Z,11.40
2023-02-19T00:33:18.658Z,15.40
2023-02-19T00:35:24.255Z,23.30
2023-02-19T00:37:29.738Z,19.90
2023-02-19T00:39:35.337Z,18.80
2023-02-19T00:41:40.809Z,16.30
2023-02-19T00:43:45.746Z,18.50
2023-02-19T00:45:50.650Z,18.90
2023-02-19T00:47:58.908Z,21.50
2023-02-19T00:50:03.672Z,19.10
2023-02-19T00:52:09.153Z,16.00
2023-02-19T00:54:16.352Z,17.70
2023-02-19T00:56:22.130Z,17.10
2023-02-19T00:58:27.438Z,9.90
2023-02-19T01:00:33.599Z,7.60
2023-02-19T01:02:39.154Z,14.70
2023-02-19T01:04:46.766Z,13.70
2023-02-19T01:06:52.525Z,14.00
2023-02-19T01:08:57.723Z,13.30
2023-02-19T01:11:04.443Z,19.40
2023-02-19T01:13:09.719Z,18.90
2023-02-19T01:15:15.171Z,21.10
2023-02-19T01:17:20.070Z,14.80
2023-02-19T01:19:25.556Z,20.10
2023-02-19T01:21:34.339Z,19.80
2023-02-19T01:23:39.890Z,21.70
2023-02-19T01:25:45.346Z,10.80
2023-02-19T01:27:51.179Z,16.80
2023-02-19T01:29:56.066Z,8.80
2023-02-19T01:32:01.936Z,15.70
2023-02-19T01:34:07.769Z,17.10
2023-02-19T01:36:13.016Z,17.90
2023-02-19T01:38:20.494Z,18.80
2023-02-19T01:40:26.166Z,47.80
2023-02-19T01:42:31.360Z,70.10
2023-02-19T01:45:27.335Z,24.10
2023-02-19T01:47:32.805Z,28.80
2023-02-19T01:49:48.649Z,26.30
2023-02-19T01:52:00.143Z,15.40
2023-02-19T01:54:12.142Z,20.90
2023-02-19T01:56:20.175Z,16.10
2023-02-19T01:58:27.024Z,8.70
2023-02-19T02:00:32.632Z,15.40
2023-02-19T02:02:37.809Z,19.80
2023-02-19T02:04:42.763Z,14.10
2023-02-19T02:06:52.843Z,12.40
2023-02-19T02:09:13.751Z,6.90
2023-02-19T02:11:22.389Z,19.60
2023-02-19T02:13:27.496Z,92.60
2023-02-19T02:15:46.391Z,99.90
2023-02-19T02:17:59.304Z,99.90
2023-02-19T02:20:36.107Z,99.90
2023-02-19T02:22:47.333Z,48.40
2023-02-19T02:25:21.347Z,28.70
2023-02-19T02:27:46.674Z,29.00
2023-02-19T02:30:42.311Z,30.10
2023-02-19T02:32:56.267Z,25.70
2023-02-19T02:35:06.998Z,10.10
2023-02-19T02:37:14.127Z,1.90
2023-02-19T02:39:24.726Z,1.00
2023-02-19T02:41:29.912Z,1.00
2023-02-19T02:43:35.524Z,1.00
2023-02-19T02:45:45.110Z,1.00
2023-02-19T02:48:14.516Z,1.00
2023-02-19T02:50:25.504Z,1.00
2023-02-19T02:52:43.462Z,1.00
2023-02-19T02:55:02.840Z,1.00
2023-02-19T02:57:09.701Z,1.00
2023-02-19T02:59:28.576Z,1.00
2023-02-19T03:01:54.799Z,1.00
2023-02-19T03:04:08.475Z,1.00
2023-02-19T03:06:18.114Z,1.00
2023-02-19T03:08:29.722Z,1.00
2023-02-19T03:10:41.767Z,1.00
2023-02-19T03:13:01.261Z,1.00
2023-02-19T03:15:25.292Z,1.00
2023-02-19T03:17:54.380Z,1.00
2023-02-19T03:20:04.154Z,1.00
2023-02-19T03:22:20.047Z,1.00
2023-02-19T03:24:51.115Z,1.00
2023-02-19T03:26:58.484Z,1.00
2023-02-19T03:29:20.807Z,1.00
2023-02-19T03:31:30.448Z,1.00
2023-02-19T03:33:43.488Z,1.00
2023-02-19T03:35:53.787Z,1.00
2023-02-19T03:38:07.323Z,1.00
2023-02-19T03:40:13.334Z,1.00
2023-02-19T03:42:30.696Z,1.00
2023-02-19T03:44:44.712Z,1.00
2023-02-19T03:46:57.610Z,1.00
2023-02-19T03:49:13.364Z,1.00
2023-02-19T03:51:35.772Z,1.00
2023-02-19T03:53:52.676Z,1.00
2023-02-19T03:56:10.377Z,1.00
2023-02-19T03:58:25.199Z,1.00
2023-02-19T04:00:35.604Z,1.00
2023-02-19T04:02:50.250Z,1.00
2023-02-19T04:05:04.786Z,1.00
2023-02-19T04:07:10.553Z,1.00
2023-02-19T04:09:19.387Z,1.00
2023-02-19T04:11:30.445Z,1.00
2023-02-19T04:13:46.459Z,1.00
2023-02-19T04:15:56.496Z,1.00
2023-02-19T04:18:05.579Z,1.00
2023-02-19T04:20:16.006Z,1.00
2023-02-19T04:22:21.507Z,1.00
2023-02-19T04:24:31.357Z,1.00
2023-02-19T04:26:37.700Z,1.00
2023-02-19T04:28:44.202Z,1.00
2023-02-19T04:30:49.487Z,1.00
2023-02-19T04:32:54.383Z,1.00
2023-02-19T04:34:59.968Z,1.00
2023-02-19T04:37:08.173Z,1.00
2023-02-19T04:39:13.099Z,1.00
2023-02-19T04:41:17.957Z,1.00
2023-02-19T04:43:23.574Z,1.00
2023-02-19T04:45:28.764Z,1.00
2023-02-19T04:47:35.716Z,1.00
2023-02-19T04:49:40.817Z,1.00
2023-02-19T04:51:45.689Z,1.00
2023-02-19T04:53:53.646Z,1.00
2023-02-19T04:55:58.511Z,1.00
2023-02-19T04:58:03.880Z,1.00
2023-02-19T05:00:12.651Z,1.00
2023-02-19T05:02:17.551Z,1.00
2023-02-19T05:04:24.221Z,1.00
2023-02-19T05:06:29.558Z,1.00
2023-02-19T05:08:35.020Z,1.00
2023-02-19T05:10:42.852Z,1.00
2023-02-19T05:12:48.363Z,1.00
2023-02-19T05:14:53.269Z,1.00
2023-02-19T05:16:58.423Z,1.00
2023-02-19T05:19:04.046Z,1.00
2023-02-19T05:21:10.147Z,1.00
2023-02-19T05:23:15.747Z,50.40
2023-02-19T05:25:20.837Z,4.80
2023-02-19T05:27:28.639Z,1.00
2023-02-19T05:29:34.524Z,99.50
2023-02-19T05:31:39.542Z,99.90
2023-02-19T05:33:51.529Z,98.60
2023-02-19T05:35:58.689Z,99.90
2023-02-19T05:38:03.720Z,99.90
2023-02-19T05:40:09.496Z,99.90
2023-02-19T05:42:17.135Z,99.90
2023-02-19T05:44:24.643Z,99.90
2023-02-19T05:46:32.452Z,99.90
2023-02-19T05:48:38.558Z,99.90
2023-02-19T05:50:43.443Z,99.90
2023-02-19T05:52:52.476Z,99.90
2023-02-19T05:54:57.347Z,99.90
2023-02-19T05:57:02.519Z,99.90
2023-02-19T05:59:10.128Z,99.90
2023-02-19T06:01:24.206Z,99.90
2023-02-19T06:03:29.114Z,99.90
2023-02-19T06:05:34.035Z,99.90
2023-02-19T06:07:39.967Z,99.90
2023-02-19T06:09:44.928Z,99.90
2023-02-19T06:11:49.788Z,99.90
2023-02-19T06:13:55.624Z,99.90
2023-02-19T06:16:00.542Z,99.90
2023-02-19T06:18:08.685Z,99.90
2023-02-19T06:20:14.494Z,99.90
2023-02-19T06:22:19.825Z,99.90
2023-02-19T06:24:24.692Z,99.90
2023-02-19T06:26:30.078Z,99.90
2023-02-19T06:28:35.522Z,99.90
2023-02-19T06:30:41.541Z,99.90
2023-02-19T06:32:46.439Z,99.90
2023-02-19T06:34:53.953Z,99.90
2023-02-19T06:36:59.070Z,99.90
2023-02-19T06:39:04.818Z,99.90
2023-02-19T06:41:11.382Z,99.90
2023-02-19T06:43:16.474Z,99.90
2023-02-19T06:45:21.909Z,99.90
2023-02-19T06:47:29.268Z,99.90
2023-02-19T06:49:34.158Z,99.90
2023-02-19T06:51:42.057Z,99.90
2023-02-19T06:53:47.561Z,99.90
2023-02-19T06:55:59.593Z,99.90
2023-02-19T06:58:05.356Z,99.90
2023-02-19T07:00:13.223Z,99.90
2023-02-19T07:02:18.083Z,99.90
2023-02-19T07:04:23.658Z,99.90
2023-02-19T07:06:29.327Z,99.90
2023-02-19T07:08:37.208Z,99.90
2023-02-19T07:10:42.685Z,99.90
2023-02-19T07:12:48.345Z,99.90
2023-02-19T07:14:53.553Z,99.90
2023-02-19T07:16:58.625Z,99.90
2023-02-19T07:19:04.729Z,99.90
2023-02-19T07:21:13.547Z,99.90
2023-02-19T07:23:18.549Z,99.90
2023-02-19T07:25:26.020Z,99.90
2023-02-19T07:27:30.904Z,99.90
2023-02-19T07:29:36.456Z,99.90
2023-02-19T07:31:41.734Z,99.90
2023-02-19T07:33:47.290Z,99.90
2023-02-19T07:35:53.821Z,99.90
2023-02-19T07:37:58.796Z,99.90
2023-02-19T07:40:04.055Z,99.90
2023-02-19T07:42:12.581Z,99.90
2023-02-19T07:44:17.524Z,99.90
2023-02-19T07:46:25.440Z,99.90
2023-02-19T07:48:30.200Z,99.90
2023-02-19T07:50:35.066Z,99.90
2023-02-19T07:52:40.014Z,99.90
2023-02-19T07:54:45.154Z,99.90
2023-02-19T07:56:50.036Z,99.90
2023-02-19T07:58:57.545Z,99.90
2023-02-19T08:01:11.719Z,99.90
2023-02-19T08:03:14.260Z,99.90
2023-02-19T08:05:19.456Z,99.90
2023-02-19T08:07:24.332Z,99.90
2023-02-19T08:09:29.253Z,99.90
2023-02-19T08:11:46.863Z,99.90
2023-02-19T08:13:53.032Z,99.90
2023-02-19T08:16:21.868Z,99.90
2023-02-19T08:18:31.880Z,99.90
2023-02-19T08:20:37.392Z,99.90
2023-02-19T08:22:43.275Z,99.90
2023-02-19T08:24:48.471Z,99.90
2023-02-19T08:26:53.480Z,99.90
2023-02-19T08:28:59.060Z,99.90
2023-02-19T08:31:10.200Z,99.90
2023-02-19T08:33:18.510Z,99.90
2023-02-19T08:35:24.716Z,99.90
2023-02-19T08:37:30.126Z,99.90
2023-02-19T08:39:35.565Z,99.90
2023-02-19T08:41:40.620Z,99.90
2023-02-19T08:43:46.012Z,99.90
2023-02-19T08:45:51.528Z,99.90
2023-02-19T08:47:59.246Z,99.90
2023-02-19T08:50:05.123Z,99.90
2023-02-19T08:52:10.335Z,99.90
2023-02-19T08:54:15.237Z,99.90
2023-02-19T08:56:20.601Z,99.90
2023-02-19T08:58:26.688Z,99.90
2023-02-19T09:00:31.587Z,99.90
2023-02-19T09:02:37.387Z,99.90
2023-02-19T09:04:44.890Z,99.90
2023-02-19T09:06:50.465Z,99.90
2023-02-19T09:08:55.421Z,99.90
2023-02-19T09:11:01.915Z,99.90
2023-02-19T09:13:08.466Z,99.90
2023-02-19T09:15:13.391Z,99.90
2023-02-19T09:17:21.646Z,1.00
2023-02-19T09:19:26.687Z,99.90
2023-02-19T09:21:34.602Z,99.90
2023-02-19T09:23:40.201Z,80.30
2023-02-19T09:25:45.876Z,1.00
2023-02-19T09:27:50.918Z,99.90
2023-02-19T09:29:56.126Z,1.00
2023-02-19T09:32:01.854Z,99.90
2023-02-19T09:34:09.028Z,99.90
2023-02-19T09:36:14.999Z,99.90
2023-02-19T09:38:22.494Z,99.90
2023-02-19T09:40:27.416Z,99.90
2023-02-19T09:42:34.890Z,99.90
2023-02-19T09:44:44.721Z,99.90
2023-02-19T09:46:52.480Z,99.90
2023-02-19T09:49:02.172Z,99.90
2023-02-19T09:51:08.031Z,99.90
2023-02-19T09:53:22.031Z,99.90
2023-02-19T09:55:36.335Z,99.90
2023-02-19T09:57:43.895Z,2.60
2023-02-19T09:59:53.556Z,36.10
2023-02-19T10:02:06.190Z,27.80
2023-02-19T10:04:13.617Z,1.00
2023-02-19T10:06:24.086Z,1.00
2023-02-19T10:08:35.490Z,99.90
2023-02-19T10:10:43.840Z,99.90
2023-02-19T10:12:52.093Z,99.90
2023-02-19T10:15:04.245Z,99.90
2023-02-19T10:17:14.357Z,99.90
2023-02-19T10:19:19.942Z,99.90
2023-02-19T10:21:28.703Z,67.70
2023-02-19T10:23:34.436Z,91.70
2023-02-19T10:25:46.205Z,27.80
2023-02-19T10:27:51.661Z,25.10
2023-02-19T10:29:56.543Z,30.20
2023-02-19T10:32:21.355Z,35.70
2023-02-19T10:34:26.657Z,35.90
2023-02-19T10:36:35.234Z,35.30
2023-02-19T10:38:48.168Z,1.00
2023-02-19T10:41:03.771Z,27.20
2023-02-19T10:43:09.024Z,37.20
2023-02-19T10:45:22.789Z,44.90
2023-02-19T10:47:29.933Z,44.20
2023-02-19T10:49:40.431Z,36.10
2023-02-19T10:51:45.694Z,39.30
2023-02-19T10:53:52.829Z,47.60
2023-02-19T10:56:13.792Z,1.00
2023-02-19T10:58:28.622Z,28.10
2023-02-19T11:00:34.430Z,17.50
2023-02-19T11:02:39.397Z,1.00
2023-02-19T11:04:45.576Z,1.00
2023-02-19T11:06:50.880Z,11.90
2023-02-19T11:09:00.207Z,1.00
2023-02-19T11:11:05.614Z,1.80
2023-02-19T11:13:19.266Z,1.00
2023-02-19T11:15:31.799Z,4.30
2023-02-19T11:17:37.087Z,1.00
2023-02-19T11:19:48.627Z,1.00
2023-02-19T11:21:54.727Z,1.00
2023-02-19T11:24:00.779Z,1.00
2023-02-19T11:26:09.780Z,1.00
2023-02-19T11:28:35.029Z,1.00
2023-02-19T11:30:43.814Z,1.00
2023-02-19T11:32:49.032Z,1.00
2023-02-19T11:34:54.169Z,1.00
2023-02-19T11:37:14.037Z,1.00
2023-02-19T11:39:34.261Z,1.00
2023-02-19T11:42:05.272Z,1.00
2023-02-19T11:44:32.850Z,1.00
2023-02-19T11:46:47.217Z,1.00
2023-02-19T11:49:01.836Z,1.00
2023-02-19T11:51:35.515Z,1.00
2023-02-19T11:53:50.059Z,1.00
2023-02-19T11:56:13.753Z,1.00
2023-02-19T11:59:01.074Z,1.00
2023-02-19T12:01:23.086Z,1.00
2023-02-19T12:04:06.115Z,1.00
2023-02-19T12:06:26.063Z,1.00
2023-02-19T12:09:20.791Z,1.00
2023-02-19T12:11:53.613Z,1.00
2023-02-19T12:14:24.686Z,1.00
2023-02-19T12:16:40.310Z,1.00
2023-02-19T12:19:26.838Z,1.00
2023-02-19T12:21:47.164Z,1.00
2023-02-19T12:24:21.123Z,1.00
2023-02-19T12:26:31.957Z,1.00
2023-02-19T12:29:03.151Z,1.00
2023-02-19T12:31:56.077Z,1.00
2023-02-19T12:34:31.702Z,1.00
2023-02-19T12:36:45.279Z,1.00
2023-02-19T12:39:01.039Z,1.00
2023-02-19T12:41:28.239Z,1.00
2023-02-19T12:43:37.153Z,1.00
2023-02-19T12:45:48.617Z,1.00
2023-02-19T12:48:04.265Z,1.00
2023-02-19T12:50:19.639Z,1.00
2023-02-19T12:52:29.062Z,1.00
2023-02-19T12:54:38.314Z,1.00
2023-02-19T12:56:49.887Z,1.00
2023-02-19T12:59:02.191Z,1.00
2023-02-19T13:01:08.457Z,1.00
2023-02-19T13:03:25.750Z,1.00
2023-02-19T13:05:44.415Z,1.00
2023-02-19T13:08:02.016Z,1.00
2023-02-19T13:10:25.120Z,1.00
2023-02-19T13:12:36.097Z,1.00
2023-02-19T13:14:45.714Z,1.00
2023-02-19T13:16:55.447Z,1.00
2023-02-19T13:19:06.753Z,1.00
2023-02-19T13:21:13.160Z,1.00
2023-02-19T13:23:37.832Z,1.00
2023-02-19T13:26:01.742Z,1.00
2023-02-19T13:28:27.984Z,1.00
2023-02-19T13:31:07.208Z,1.00
2023-02-19T13:33:34.365Z,1.00
2023-02-19T13:36:07.060Z,1.00
2023-02-19T13:38:15.395Z,1.00
2023-02-19T13:40:33.826Z,1.00
2023-02-19T13:42:40.334Z,1.00
2023-02-19T13:44:55.179Z,1.00
2023-02-19T13:47:06.198Z,1.00
2023-02-19T13:49:52.998Z,1.00
2023-02-19T13:52:01.863Z,1.00
2023-02-19T13:54:23.847Z,1.00
2023-02-19T13:56:43.857Z,1.00
2023-02-19T13:59:01.511Z,1.00
2023-02-19T14:01:07.757Z,1.00
2023-02-19T14:03:47.984Z,1.00
2023-02-19T14:06:06.122Z,1.00
2023-02-19T14:08:37.176Z,1.00
2023-02-19T14:11:05.571Z,1.00
2023-02-19T14:13:11.873Z,1.00
2023-02-19T14:15:46.006Z,1.00
2023-02-19T14:17:51.546Z,1.00
2023-02-19T14:20:02.519Z,1.00
2023-02-19T14:23:01.969Z,1.00
2023-02-19T14:25:20.855Z,1.00
2023-02-19T14:27:28.862Z,1.00
2023-02-19T14:29:34.649Z,1.00
2023-02-19T14:31:40.989Z,1.00
2023-02-19T14:33:51.277Z,1.00
2023-02-19T14:36:00.823Z,1.00
2023-02-19T14:38:07.456Z,1.00
2023-02-19T14:40:20.292Z,1.00
2023-02-19T14:42:33.597Z,1.00
2023-02-19T14:44:53.288Z,1.00
2023-02-19T14:47:03.065Z,1.00
2023-02-19T14:49:18.204Z,1.00
2023-02-19T14:51:34.884Z,4.70
2023-02-19T14:53:45.638Z,16.80
2023-02-19T14:55:54.109Z,9.50
2023-02-19T14:58:06.868Z,1.00
2023-02-19T15:00:29.130Z,7.20
2023-02-19T15:02:35.492Z,8.70
2023-02-19T15:04:40.673Z,15.10
2023-02-19T15:06:46.003Z,7.80
2023-02-19T15:08:55.550Z,1.00
2023-02-19T15:11:00.923Z,4.70
2023-02-19T15:13:12.892Z,1.00
2023-02-19T15:15:25.060Z,3.00
2023-02-19T15:17:33.333Z,1.00
2023-02-19T15:19:40.256Z,4.80
2023-02-19T15:21:50.734Z,2.60
2023-02-19T15:23:58.844Z,9.10
2023-02-19T15:26:04.688Z,20.00
2023-02-19T15:28:32.624Z,30.10
2023-02-19T15:30:38.257Z,21.50
2023-02-19T15:32:43.264Z,28.10
2023-02-19T15:34:58.092Z,40.90
2023-02-19T15:37:07.928Z,23.60
2023-02-19T15:39:24.256Z,21.80
2023-02-19T15:41:34.856Z,26.20
2023-02-19T15:43:50.745Z,31.00
2023-02-19T15:46:01.579Z,24.50
2023-02-19T15:48:11.679Z,31.30
2023-02-19T15:50:20.336Z,51.50
2023-02-19T15:52:41.957Z,54.90
2023-02-19T15:54:55.245Z,56.10
2023-02-19T15:57:09.235Z,55.10
2023-02-19T15:59:27.426Z,54.50
2023-02-19T16:01:34.365Z,53.90
2023-02-19T16:03:40.253Z,53.60
2023-02-19T16:05:45.708Z,43.20
2023-02-19T16:08:07.734Z,68.50
2023-02-19T16:10:26.349Z,83.70
2023-02-19T16:12:37.355Z,85.00
2023-02-19T16:14:45.449Z,83.40
2023-02-19T16:16:53.690Z,83.70
2023-02-19T16:18:59.744Z,97.40
2023-02-19T16:21:11.583Z,78.00
2023-02-19T16:23:24.529Z,78.30
2023-02-19T16:25:37.534Z,90.30
2023-02-19T16:27:45.043Z,55.20
2023-02-19T16:29:58.096Z,63.10
2023-02-19T16:32:05.849Z,69.00
2023-02-19T16:34:23.405Z,64.70
2023-02-19T16:36:42.065Z,77.20
2023-02-19T16:39:20.053Z,81.70
2023-02-19T16:41:25.328Z,70.50
2023-02-19T16:43:34.253Z,50.80
2023-02-19T16:45:44.406Z,93.40
2023-02-19T16:47:51.944Z,73.70
2023-02-19T16:49:58.279Z,69.60
2023-02-19T16:52:04.810Z,85.00
2023-02-19T16:54:09.913Z,77.60
2023-02-19T16:56:18.892Z,89.60
2023-02-19T16:58:24.899Z,72.20
2023-02-19T17:00:32.509Z,68.20
2023-02-19T17:02:40.964Z,77.00
2023-02-19T17:04:46.150Z,66.70
2023-02-19T17:06:51.511Z,79.20
2023-02-19T17:08:56.863Z,70.20
2023-02-19T17:11:04.054Z,72.20
2023-02-19T17:13:09.046Z,74.30
2023-02-19T17:15:15.418Z,75.70
2023-02-19T17:17:23.402Z,84.30
2023-02-19T17:19:31.335Z,83.90
2023-02-19T17:21:37.866Z,74.70
2023-02-19T17:23:42.854Z,67.20
2023-02-19T17:25:47.863Z,55.60
2023-02-19T17:27:53.506Z,51.50
2023-02-19T17:29:58.463Z,46.50
2023-02-19T17:32:04.224Z,47.50
2023-02-19T17:34:09.863Z,45.90
2023-02-19T17:36:22.428Z,33.20
2023-02-19T17:38:28.571Z,23.40
2023-02-19T17:40:35.152Z,25.60
2023-02-19T17:42:40.703Z,23.80
2023-02-19T17:44:46.937Z,23.10
2023-02-19T17:46:53.446Z,17.50
2023-02-19T17:48:58.822Z,26.50
2023-02-19T17:51:03.943Z,14.90
2023-02-19T17:53:12.341Z,18.60
2023-02-19T17:55:20.200Z,22.60
2023-02-19T17:57:25.984Z,21.00
2023-02-19T17:59:31.084Z,20.80
2023-02-19T18:01:36.158Z,11.00
2023-02-19T18:03:41.667Z,20.50
2023-02-19T18:05:46.942Z,17.00
2023-02-19T18:07:53.119Z,28.90
2023-02-19T18:10:00.838Z,23.50
2023-02-19T18:12:06.495Z,33.50
2023-02-19T18:14:11.428Z,22.70
2023-02-19T18:16:17.278Z,27.80
2023-02-19T18:18:23.609Z,29.40
2023-02-19T18:20:31.557Z,29.60
2023-02-19T18:22:36.568Z,35.00
2023-02-19T18:24:41.539Z,46.00
2023-02-19T18:26:49.526Z,43.20
2023-02-19T18:28:54.462Z,41.90
2023-02-19T18:30:59.564Z,52.30
2023-02-19T18:33:04.525Z,43.80
2023-02-19T18:35:11.467Z,54.50
2023-02-19T18:37:17.034Z,49.20
2023-02-19T18:39:22.062Z,53.40
2023-02-19T18:41:27.041Z,50.20
2023-02-19T18:43:34.576Z,47.80
2023-02-19T18:45:40.029Z,56.70
2023-02-19T18:47:44.980Z,54.90
2023-02-19T18:49:51.110Z,65.60
2023-02-19T18:51:56.057Z,64.50
2023-02-19T18:54:02.079Z,60.80
2023-02-19T18:56:09.168Z,64.40
2023-02-19T18:58:14.391Z,58.70
2023-02-19T19:00:26.598Z,56.50
2023-02-19T19:02:42.626Z,61.90
2023-02-19T19:04:57.157Z,55.00
2023-02-19T19:07:02.350Z,56.20
2023-02-19T19:09:08.671Z,69.60
2023-02-19T19:11:13.897Z,71.00
2023-02-19T19:13:19.227Z,66.30
2023-02-19T19:15:27.496Z,71.90
2023-02-19T19:17:32.454Z,80.10
2023-02-19T19:19:37.442Z,70.40
2023-02-19T19:21:42.360Z,79.00
2023-02-19T19:23:47.434Z,80.30
2023-02-19T19:25:54.095Z,81.90
2023-02-19T19:27:59.148Z,81.50
2023-02-19T19:30:04.171Z,80.20
2023-02-19T19:32:12.292Z,79.20
2023-02-19T19:34:18.109Z,75.90
2023-02-19T19:36:25.264Z,62.60
2023-02-19T19:38:30.186Z,72.90
2023-02-19T19:40:35.137Z,83.00
2023-02-19T19:42:40.095Z,78.20
2023-02-19T19:44:47.290Z,78.30
2023-02-19T19:46:54.372Z,78.00
2023-02-19T19:49:02.706Z,68.70
2023-02-19T19:51:08.115Z,74.60
2023-02-19T19:53:13.295Z,81.80
2023-02-19T19:55:18.885Z,77.00
2023-02-19T19:57:24.091Z,81.70
2023-02-19T19:59:29.085Z,82.70
2023-02-19T20:01:34.741Z,81.90
2023-02-19T20:03:42.272Z,82.90
2023-02-19T20:05:51.340Z,82.40
2023-02-19T20:07:56.979Z,90.20
2023-02-19T20:10:01.901Z,95.50
2023-02-19T20:12:07.895Z,92.30
2023-02-19T20:14:13.261Z,92.00
2023-02-19T20:16:18.369Z,88.60
2023-02-19T20:18:25.276Z,83.50
2023-02-19T20:20:31.581Z,88.80
2023-02-19T20:22:39.518Z,92.40
2023-02-19T20:24:44.391Z,86.10
2023-02-19T20:26:49.649Z,90.80
2023-02-19T20:28:57.835Z,92.50
2023-02-19T20:31:03.520Z,92.60
2023-02-19T20:33:08.432Z,92.30
2023-02-19T20:35:13.595Z,92.50
2023-02-19T20:37:18.852Z,92.50
2023-02-19T20:39:29.204Z,92.10
2023-02-19T20:41:34.199Z,91.50
2023-02-19T20:43:39.294Z,79.50
2023-02-19T20:45:45.926Z,82.70
2023-02-19T20:47:50.910Z,87.80
2023-02-19T20:49:55.905Z,73.60
2023-02-19T20:52:03.046Z,78.40
2023-02-19T20:54:08.138Z,80.50
2023-02-19T20:56:15.791Z,85.10
2023-02-19T20:58:21.132Z,86.90
2023-02-19T21:00:26.889Z,78.80
2023-02-19T21:02:31.910Z,82.30
2023-02-19T21:04:37.076Z,83.10
2023-02-19T21:06:42.588Z,99.10
2023-02-19T21:08:47.626Z,99.90
2023-02-19T21:10:52.562Z,98.70
2023-02-19T21:13:00.372Z,99.20
2023-02-19T21:15:05.590Z,99.90
2023-02-19T21:17:10.602Z,99.90
2023-02-19T21:19:15.603Z,99.90
2023-02-19T21:21:21.290Z,99.90
2023-02-19T21:23:27.174Z,99.90
2023-02-19T21:25:33.244Z,96.60
2023-02-19T21:27:39.541Z,99.30
2023-02-19T21:29:47.012Z,99.20
2023-02-19T21:31:54.820Z,95.40
2023-02-19T21:33:59.931Z,98.20
2023-02-19T21:36:05.537Z,98.70
2023-02-19T21:38:11.158Z,98.30
2023-02-19T21:40:17.122Z,99.90
2023-02-19T21:42:22.426Z,99.90
2023-02-19T21:44:27.758Z,99.90
2023-02-19T21:46:35.638Z,99.90
2023-02-19T21:48:41.124Z,99.90
2023-02-19T21:50:46.496Z,99.90
2023-02-19T21:52:51.806Z,99.90
2023-02-19T21:54:56.751Z,99.90
2023-02-19T21:57:06.191Z,99.90
2023-02-19T21:59:11.634Z,99.90
2023-02-19T22:01:16.623Z,99.90
2023-02-19T22:03:24.425Z,99.90
2023-02-19T22:05:29.590Z,99.90
2023-02-19T22:07:34.689Z,99.90
2023-02-19T22:09:40.080Z,99.90
2023-02-19T22:11:45.555Z,99.90
2023-02-19T22:13:50.533Z,99.90
2023-02-19T22:15:55.828Z,99.90
2023-02-19T22:18:01.115Z,99.90
2023-02-19T22:20:10.736Z,99.90
2023-02-19T22:22:15.792Z,99.90
2023-02-19T22:24:23.280Z,1.00
2023-02-19T22:26:31.521Z,62.00
2023-02-19T22:28:36.530Z,1.00
2023-02-19T22:30:43.240Z,1.00
2023-02-19T22:32:48.198Z,1.00
2023-02-19T22:34:53.376Z,1.00
2023-02-19T22:37:01.295Z,1.00
2023-02-19T22:39:08.020Z,1.00
2023-02-19T22:41:13.106Z,31.40
2023-02-19T22:43:20.768Z,72.10
2023-02-19T22:45:26.287Z,99.90
2023-02-19T22:47:32.182Z,99.90
2023-02-19T22:49:40.086Z,99.90
2023-02-19T22:51:56.198Z,99.90
2023-02-19T22:54:03.704Z,99.90
2023-02-19T22:56:09.730Z,96.80
2023-02-19T22:58:14.775Z,95.00
2023-02-19T23:00:22.064Z,99.90
2023-02-19T23:02:28.262Z,92.00
2023-02-19T23:04:33.212Z,94.60
2023-02-19T23:06:41.869Z,93.00
2023-02-19T23:08:47.234Z,73.50
2023-02-19T23:10:54.844Z,91.80
2023-02-19T23:12:59.833Z,80.30
2023-02-19T23:15:04.994Z,82.10
2023-02-19T23:17:10.477Z,96.30
2023-02-19T23:19:18.516Z,84.20
2023-02-19T23:21:25.670Z,89.40
2023-02-19T23:23:30.626Z,85.40
2023-02-19T23:25:35.592Z,78.20
2023-02-19T23:27:43.160Z,72.30
2023-02-19T23:29:48.128Z,90.90
2023-02-19T23:31:53.267Z,90.60
2023-02-19T23:33:58.575Z,95.50
2023-02-19T23:36:04.411Z,97.60
2023-02-19T23:38:09.827Z,91.10
2023-02-19T23:40:16.974Z,89.20
2023-02-19T23:42:21.911Z,89.50
2023-02-19T23:44:29.796Z,98.40
2023-02-19T23:46:34.865Z,64.20
2023-02-19T23:48:39.784Z,46.10
2023-02-19T23:50:45.002Z,22.30
2023-02-19T23:52:50.433Z,74.40
2023-02-19T23:54:55.418Z,42.20
2023-02-19T23:57:03.983Z,23.60
2023-02-19T23:59:09.788Z,35.60
